Terminal Aerodrome Forecast
Issued by NWS Charleston, WV

Current Version | Previous Version | Graphics & Text | Print | Product List | Glossary On
Versions: 1 2 3 4 5 6 7 8 9 10 11 12 13 14 15 16 17 18 19 20 21
499
FTUS41 KRLX 201720
TAFCRW
TAF
KCRW 201720Z 2018/2118 00000KT P6SM SKC
     FM211100 00000KT 6SM BR SCT001
     FM211300 00000KT P6SM FEW250=

USA.gov is the U.S. government's official web portal to all federal, state and local government web resources and services.